createdAt,value
2018-05-13T00:00:03.824Z,87.94
2018-05-13T00:01:04.053Z,87.37
2018-05-13T00:02:04.283Z,87.46
2018-05-13T00:03:04.514Z,86.88
2018-05-13T00:04:04.742Z,86.50
2018-05-13T00:05:04.971Z,86.69
2018-05-13T00:06:05.201Z,87.17
2018-05-13T00:07:05.440Z,87.08
2018-05-13T00:08:05.661Z,87.37
2018-05-13T00:09:05.894Z,87.55
2018-05-13T00:10:06.127Z,87.94
2018-05-13T00:11:06.357Z,88.23
2018-05-13T00:12:06.590Z,88.03
2018-05-13T00:13:06.820Z,87.65
2018-05-13T00:14:07.049Z,87.74
2018-05-13T00:15:07.276Z,87.74
2018-05-13T00:16:07.508Z,87.94
2018-05-13T00:17:07.740Z,88.13
2018-05-13T00:18:07.973Z,87.55
2018-05-13T00:19:08.204Z,88.66
2018-05-13T00:20:08.426Z,88.66
2018-05-13T00:21:08.657Z,87.90
2018-05-13T00:22:08.887Z,88.28
2018-05-13T00:23:09.116Z,87.99
2018-05-13T00:24:09.350Z,88.85
2018-05-13T00:25:09.577Z,88.37
2018-05-13T00:26:09.815Z,88.18
2018-05-13T00:27:10.030Z,87.55
2018-05-13T00:28:10.278Z,87.99
2018-05-13T00:29:10.509Z,87.23
2018-05-13T00:30:10.740Z,87.17
2018-05-13T00:31:10.966Z,86.88
2018-05-13T00:32:11.195Z,86.74
2018-05-13T00:33:11.430Z,86.98
2018-05-13T00:34:11.662Z,87.03
2018-05-13T00:35:11.894Z,87.13
2018-05-13T00:36:12.121Z,87.90
2018-05-13T00:37:12.352Z,87.61
2018-05-13T00:38:12.579Z,88.18
2018-05-13T00:39:12.809Z,88.18
2018-05-13T00:40:13.041Z,88.56
2018-05-13T00:41:13.268Z,88.18
2018-05-13T00:42:13.495Z,88.28
2018-05-13T00:43:13.724Z,88.37
2018-05-13T00:44:13.958Z,88.18
2018-05-13T00:45:14.193Z,88.95
2018-05-13T00:46:14.426Z,89.14
2018-05-13T00:47:14.647Z,88.85
2018-05-13T00:48:14.881Z,88.76
2018-05-13T00:49:15.110Z,88.56
2018-05-13T00:50:15.339Z,89.33
2018-05-13T00:51:15.569Z,89.23
2018-05-13T00:52:15.801Z,89.14
2018-05-13T00:53:16.030Z,89.38
2018-05-13T00:54:16.261Z,89.14
2018-05-13T00:55:16.493Z,89.43
2018-05-13T00:56:16.727Z,89.23
2018-05-13T00:57:16.952Z,89.23
2018-05-13T00:58:17.178Z,89.58
2018-05-13T00:59:17.405Z,89.29
2018-05-13T01:00:17.634Z,89.09
2018-05-13T01:01:17.863Z,89.29
2018-05-13T01:02:18.097Z,89.09
2018-05-13T01:03:18.330Z,88.33
2018-05-13T01:04:18.565Z,88.90
2018-05-13T01:05:18.790Z,89.29
2018-05-13T01:06:19.020Z,89.48
2018-05-13T01:07:19.250Z,89.86
2018-05-13T01:08:19.478Z,89.09
2018-05-13T01:09:19.708Z,89.29
2018-05-13T01:10:19.943Z,88.43
2018-05-13T01:11:20.172Z,88.33
2018-05-13T01:12:20.404Z,88.43
2018-05-13T01:13:20.638Z,88.33
2018-05-13T01:14:20.862Z,88.52
2018-05-13T01:15:21.091Z,88.33
2018-05-13T01:16:21.323Z,88.62
2018-05-13T01:17:21.560Z,88.81
2018-05-13T01:18:21.782Z,89.09
2018-05-13T01:19:22.010Z,88.90
2018-05-13T01:20:22.244Z,88.71
2018-05-13T01:21:22.472Z,88.23
2018-05-13T01:22:22.708Z,89.19
2018-05-13T01:23:22.933Z,89.76
2018-05-13T01:24:23.164Z,90.30
2018-05-13T01:25:23.392Z,90.30
2018-05-13T01:26:23.620Z,90.24
2018-05-13T01:27:23.852Z,90.67
2018-05-13T01:28:24.077Z,90.87
2018-05-13T01:29:24.312Z,91.06
2018-05-13T01:30:24.539Z,90.77
2018-05-13T01:31:24.775Z,90.30
2018-05-13T01:32:25.002Z,90.58
2018-05-13T01:33:25.231Z,90.48
2018-05-13T01:34:25.473Z,91.16
2018-05-13T01:35:25.697Z,90.87
2018-05-13T01:36:25.920Z,91.35
2018-05-13T01:37:26.146Z,91.53
2018-05-13T01:38:26.382Z,91.35
2018-05-13T01:39:26.605Z,91.83
2018-05-13T01:40:26.836Z,92.30
2018-05-13T01:41:27.068Z,92.93
2018-05-13T01:42:27.290Z,92.59
2018-05-13T01:43:27.518Z,92.02
2018-05-13T01:44:27.746Z,91.53
2018-05-13T01:45:27.974Z,90.87
2018-05-13T01:46:28.206Z,90.67
2018-05-13T01:47:28.434Z,90.87
2018-05-13T01:48:28.662Z,90.87
2018-05-13T01:49:28.897Z,91.53
2018-05-13T01:50:29.127Z,91.73
2018-05-13T01:51:29.354Z,91.63
2018-05-13T01:52:29.584Z,92.02
2018-05-13T01:53:29.814Z,91.53
2018-05-13T01:54:30.043Z,92.11
2018-05-13T01:55:30.270Z,91.53
2018-05-13T01:56:30.502Z,91.35
2018-05-13T01:57:30.734Z,91.83
2018-05-13T01:58:30.966Z,92.97
2018-05-13T01:59:31.191Z,92.97
2018-05-13T02:00:31.418Z,92.21
2018-05-13T02:01:31.650Z,92.97
2018-05-13T02:02:31.877Z,92.97
2018-05-13T02:03:32.110Z,91.92
2018-05-13T02:04:32.336Z,92.49
2018-05-13T02:05:32.566Z,92.49
2018-05-13T02:06:32.796Z,92.02
2018-05-13T02:07:33.023Z,92.02
2018-05-13T02:08:33.252Z,92.40
2018-05-13T02:09:33.484Z,91.68
2018-05-13T02:10:33.710Z,92.49
2018-05-13T02:11:33.942Z,92.30
2018-05-13T02:12:34.171Z,92.02
2018-05-13T02:13:34.402Z,91.53
2018-05-13T02:14:34.629Z,91.53
2018-05-13T02:15:34.860Z,91.06
2018-05-13T02:16:35.088Z,91.53
2018-05-13T02:17:35.318Z,91.53
2018-05-13T02:18:35.547Z,91.63
2018-05-13T02:19:35.777Z,91.63
2018-05-13T02:20:36.007Z,91.63
2018-05-13T02:21:36.234Z,91.06
2018-05-13T02:22:36.462Z,91.25
2018-05-13T02:23:36.693Z,91.44
2018-05-13T02:24:36.923Z,91.53
2018-05-13T02:25:37.153Z,91.92
2018-05-13T02:26:37.386Z,91.53
2018-05-13T02:27:37.612Z,92.11
2018-05-13T02:28:37.844Z,91.53
2018-05-13T02:29:38.078Z,90.87
2018-05-13T02:30:38.310Z,90.96
2018-05-13T02:31:38.537Z,90.39
2018-05-13T02:32:38.761Z,90.39
2018-05-13T02:33:38.992Z,89.81
2018-05-13T02:34:39.221Z,90.39
2018-05-13T02:35:39.453Z,90.20
2018-05-13T02:36:39.684Z,89.62
2018-05-13T02:37:39.918Z,90.39
2018-05-13T02:38:40.143Z,90.39
2018-05-13T02:39:40.376Z,90.30
2018-05-13T02:40:40.606Z,90.67
2018-05-13T02:41:40.833Z,90.58
2018-05-13T02:42:41.069Z,91.06
2018-05-13T02:43:41.293Z,91.53
2018-05-13T02:44:41.528Z,91.44
2018-05-13T02:45:41.763Z,90.87
2018-05-13T02:46:41.992Z,90.77
2018-05-13T02:47:42.222Z,90.48
2018-05-13T02:48:42.461Z,90.30
2018-05-13T02:49:42.679Z,90.96
2018-05-13T02:50:42.908Z,90.67
2018-05-13T02:51:43.137Z,90.34
2018-05-13T02:52:43.369Z,90.20
2018-05-13T02:53:43.596Z,90.05
2018-05-13T02:54:43.825Z,90.01
2018-05-13T02:55:44.054Z,90.30
2018-05-13T02:56:44.281Z,90.10
2018-05-13T02:57:44.512Z,90.20
2018-05-13T02:58:44.742Z,90.10
2018-05-13T02:59:44.972Z,89.91
2018-05-13T03:00:45.202Z,90.10
2018-05-13T03:01:45.432Z,90.10
2018-05-13T03:02:45.663Z,90.20
2018-05-13T03:03:45.890Z,90.20
2018-05-13T03:04:46.122Z,90.01
2018-05-13T03:05:46.346Z,90.20
2018-05-13T03:06:46.575Z,90.20
2018-05-13T03:07:46.806Z,90.01
2018-05-13T03:08:47.034Z,89.81
2018-05-13T03:09:47.263Z,90.01
2018-05-13T03:10:47.490Z,90.01
2018-05-13T03:11:47.723Z,90.58
2018-05-13T03:12:47.952Z,90.10
2018-05-13T03:13:48.181Z,90.30
2018-05-13T03:14:48.412Z,90.87
2018-05-13T03:15:48.639Z,90.30
2018-05-13T03:16:48.868Z,90.48
2018-05-13T03:17:49.097Z,90.30
2018-05-13T03:18:49.329Z,90.39
2018-05-13T03:19:49.565Z,90.39
2018-05-13T03:20:49.787Z,90.10
2018-05-13T03:21:50.020Z,90.30
2018-05-13T03:22:50.247Z,90.30
2018-05-13T03:23:50.479Z,90.20
2018-05-13T03:24:50.707Z,90.30
2018-05-13T03:25:50.935Z,90.67
2018-05-13T03:26:51.165Z,90.30
2018-05-13T03:27:51.394Z,90.58
2018-05-13T03:28:51.624Z,90.30
2018-05-13T03:29:51.853Z,90.01
2018-05-13T03:30:52.083Z,90.30
2018-05-13T03:31:52.313Z,90.01
2018-05-13T03:32:52.543Z,89.34
2018-05-13T03:33:52.773Z,90.39
2018-05-13T03:34:53.008Z,90.20
2018-05-13T03:35:53.233Z,90.30
2018-05-13T03:36:53.459Z,89.72
2018-05-13T03:37:53.688Z,90.20
2018-05-13T03:38:53.917Z,90.48
2018-05-13T03:39:54.146Z,90.96
2018-05-13T03:40:54.381Z,90.48
2018-05-13T03:41:54.608Z,90.77
2018-05-13T03:42:54.841Z,90.30
2018-05-13T03:43:55.070Z,90.96
2018-05-13T03:44:55.301Z,90.67
2018-05-13T03:45:55.529Z,90.87
2018-05-13T03:46:55.756Z,90.96
2018-05-13T03:47:55.986Z,91.35
2018-05-13T03:48:56.217Z,91.35
2018-05-13T03:49:56.449Z,91.35
2018-05-13T03:50:56.677Z,91.44
2018-05-13T03:51:56.911Z,91.06
2018-05-13T03:52:57.136Z,90.96
2018-05-13T03:53:57.367Z,90.34
2018-05-13T03:54:57.595Z,90.44
2018-05-13T03:55:57.822Z,90.53
2018-05-13T03:56:58.054Z,90.24
2018-05-13T03:57:58.283Z,89.76
2018-05-13T03:58:58.516Z,90.05
2018-05-13T03:59:58.746Z,90.44
2018-05-13T04:00:58.974Z,89.86
2018-05-13T04:01:59.207Z,89.48
2018-05-13T04:02:59.432Z,89.67
2018-05-13T04:03:59.662Z,89.67
2018-05-13T04:04:59.892Z,89.72
2018-05-13T04:06:00.125Z,88.95
2018-05-13T04:07:00.355Z,88.95
2018-05-13T04:08:00.583Z,88.95
2018-05-13T04:09:00.814Z,88.95
2018-05-13T04:10:01.041Z,88.90
2018-05-13T04:11:01.271Z,88.03
2018-05-13T04:12:01.503Z,87.74
2018-05-13T04:13:01.733Z,86.64
2018-05-13T04:14:01.962Z,85.78
2018-05-13T04:15:02.191Z,85.88
2018-05-13T04:16:02.422Z,84.77
2018-05-13T04:17:02.653Z,83.52
2018-05-13T04:18:02.884Z,83.18
2018-05-13T04:19:03.121Z,82.89
2018-05-13T04:20:03.344Z,82.03
2018-05-13T04:21:03.575Z,81.45
2018-05-13T04:22:03.804Z,81.10
2018-05-13T04:23:04.040Z,80.63
2018-05-13T04:24:04.268Z,80.73
2018-05-13T04:25:04.499Z,79.90
2018-05-13T04:26:04.727Z,78.75
2018-05-13T04:27:04.962Z,78.02
2018-05-13T04:28:05.192Z,77.06
2018-05-13T04:29:05.421Z,77.06
2018-05-13T04:30:05.656Z,76.86
2018-05-13T04:31:05.886Z,76.71
2018-05-13T04:32:06.118Z,75.94
2018-05-13T04:33:06.350Z,74.92
2018-05-13T04:34:06.583Z,74.05
2018-05-13T04:35:06.817Z,73.03
2018-05-13T04:36:07.049Z,71.97
2018-05-13T04:37:07.280Z,71.30
2018-05-13T04:38:07.513Z,71.17
2018-05-13T04:39:07.747Z,71.75
2018-05-13T04:40:07.979Z,72.32
2018-05-13T04:41:08.213Z,72.42
2018-05-13T04:42:08.446Z,72.52
2018-05-13T04:43:08.679Z,72.71
2018-05-13T04:44:08.912Z,72.03
2018-05-13T04:45:09.144Z,72.23
2018-05-13T04:46:09.376Z,72.03
2018-05-13T04:47:09.609Z,72.26
2018-05-13T04:48:09.844Z,70.82
2018-05-13T04:49:10.077Z,70.43
2018-05-13T04:50:10.310Z,69.79
2018-05-13T04:51:10.547Z,69.70
2018-05-13T04:52:10.778Z,68.96
2018-05-13T04:53:11.060Z,69.15
2018-05-13T04:54:11.245Z,68.87
2018-05-13T04:55:11.481Z,67.81
2018-05-13T04:56:11.712Z,67.33
2018-05-13T04:57:11.958Z,67.94
2018-05-13T04:58:12.191Z,68.29
2018-05-13T04:59:12.423Z,68.19
2018-05-13T05:00:12.659Z,68.04
2018-05-13T05:01:12.897Z,68.32
2018-05-13T05:02:13.132Z,67.55
2018-05-13T05:03:13.365Z,67.65
2018-05-13T05:04:13.600Z,67.55
2018-05-13T05:05:13.834Z,67.07
2018-05-13T05:06:14.076Z,67.20
2018-05-13T05:07:14.303Z,66.62
2018-05-13T05:08:14.536Z,66.59
2018-05-13T05:09:14.772Z,66.88
2018-05-13T05:10:15.007Z,67.30
2018-05-13T05:11:15.242Z,66.14
2018-05-13T05:12:15.477Z,65.78
2018-05-13T05:13:15.713Z,65.14
2018-05-13T05:14:15.946Z,64.08
2018-05-13T05:15:16.183Z,63.43
2018-05-13T05:16:16.426Z,63.18
2018-05-13T05:17:16.656Z,62.70
2018-05-13T05:18:16.896Z,62.44
2018-05-13T05:19:17.125Z,60.63
2018-05-13T05:20:17.359Z,60.27
2018-05-13T05:21:17.594Z,59.01
2018-05-13T05:22:17.832Z,59.05
2018-05-13T05:23:18.068Z,57.62
2018-05-13T05:24:18.304Z,56.75
2018-05-13T05:25:18.542Z,55.90
2018-05-13T05:26:18.776Z,55.06
2018-05-13T05:27:19.020Z,54.94
2018-05-13T05:28:19.247Z,55.32
2018-05-13T05:29:19.485Z,55.16
2018-05-13T05:30:19.720Z,54.70
2018-05-13T05:31:19.959Z,53.44
2018-05-13T05:32:20.191Z,54.96
2018-05-13T05:33:20.432Z,53.63
2018-05-13T05:34:20.668Z,52.98
2018-05-13T05:35:20.905Z,52.52
2018-05-13T05:36:21.142Z,51.06
2018-05-13T05:37:21.381Z,50.80
2018-05-13T05:38:21.620Z,49.34
2018-05-13T05:39:21.859Z,49.82
2018-05-13T05:40:22.089Z,50.87
2018-05-13T05:41:22.326Z,50.74
2018-05-13T05:42:22.565Z,51.50
2018-05-13T05:43:22.805Z,53.61
2018-05-13T05:44:23.041Z,54.26
2018-05-13T05:45:23.279Z,54.62
2018-05-13T05:46:23.518Z,54.45
2018-05-13T05:47:23.760Z,55.00
2018-05-13T05:48:24.035Z,55.88
2018-05-13T05:49:24.237Z,55.62
2018-05-13T05:50:24.472Z,54.64
2018-05-13T05:51:24.709Z,53.77
2018-05-13T05:52:24.945Z,53.99
2018-05-13T05:53:25.183Z,54.94
2018-05-13T05:54:25.433Z,53.89
2018-05-13T05:55:25.657Z,54.86
2018-05-13T05:56:25.894Z,54.94
2018-05-13T05:57:26.132Z,55.06
2018-05-13T05:58:26.372Z,54.09
2018-05-13T05:59:26.612Z,53.97
2018-05-13T06:00:26.851Z,55.20
2018-05-13T06:01:27.087Z,56.10
2018-05-13T06:02:27.327Z,55.13
2018-05-13T06:03:27.566Z,55.26
2018-05-13T06:04:27.805Z,55.32
2018-05-13T06:05:28.042Z,55.35
2018-05-13T06:06:28.282Z,53.99
2018-05-13T06:07:28.519Z,53.73
2018-05-13T06:08:28.760Z,53.15
2018-05-13T06:09:28.996Z,51.62
2018-05-13T06:10:29.235Z,52.18
2018-05-13T06:11:29.480Z,51.72
2018-05-13T06:12:29.718Z,52.30
2018-05-13T06:13:29.956Z,52.50
2018-05-13T06:14:30.194Z,52.52
2018-05-13T06:15:30.434Z,51.67
2018-05-13T06:16:30.672Z,51.18
2018-05-13T06:17:30.912Z,49.85
2018-05-13T06:18:31.151Z,49.87
2018-05-13T06:19:31.417Z,50.63
2018-05-13T06:20:31.627Z,48.88
2018-05-13T06:21:31.863Z,48.54
2018-05-13T06:22:32.103Z,48.05
2018-05-13T06:23:32.337Z,46.88
2018-05-13T06:24:32.577Z,47.66
2018-05-13T06:25:32.815Z,47.34
2018-05-13T06:26:33.055Z,48.13
2018-05-13T06:27:33.292Z,48.13
2018-05-13T06:28:33.534Z,48.54
2018-05-13T06:29:33.773Z,48.54
2018-05-13T06:30:34.014Z,47.37
2018-05-13T06:31:34.253Z,47.32
2018-05-13T06:32:34.493Z,47.74
2018-05-13T06:33:34.735Z,47.81
2018-05-13T06:34:34.970Z,47.32
2018-05-13T06:35:35.209Z,48.49
2018-05-13T06:36:35.448Z,48.20
2018-05-13T06:37:35.686Z,47.91
2018-05-13T06:38:35.933Z,47.81
2018-05-13T06:39:36.201Z,48.58
2018-05-13T06:40:36.407Z,48.41
2018-05-13T06:41:36.646Z,49.49
2018-05-13T06:42:36.889Z,48.32
2018-05-13T06:43:37.125Z,47.47
2018-05-13T06:44:37.364Z,47.66
2018-05-13T06:45:37.603Z,47.27
2018-05-13T06:46:37.846Z,46.78
2018-05-13T06:47:38.091Z,47.56
2018-05-13T06:48:38.327Z,47.66
2018-05-13T06:49:38.566Z,47.66
2018-05-13T06:50:38.805Z,48.03
2018-05-13T06:51:39.044Z,47.34
2018-05-13T06:52:39.284Z,48.49
2018-05-13T06:53:39.520Z,50.48
2018-05-13T06:54:39.763Z,49.71
2018-05-13T06:55:40.001Z,51.04
2018-05-13T06:56:40.238Z,51.50
2018-05-13T06:57:40.476Z,52.18
2018-05-13T06:58:40.716Z,52.90
2018-05-13T06:59:40.955Z,52.83
2018-05-13T07:00:41.194Z,53.22
2018-05-13T07:01:41.443Z,54.58
2018-05-13T07:02:41.682Z,53.31
2018-05-13T07:03:41.918Z,53.99
2018-05-13T07:04:42.165Z,54.16
2018-05-13T07:05:42.408Z,54.48
2018-05-13T07:06:42.646Z,54.16
2018-05-13T07:07:42.884Z,55.13
2018-05-13T07:08:43.120Z,55.22
2018-05-13T07:09:43.359Z,56.49
2018-05-13T07:10:43.598Z,56.94
2018-05-13T07:11:43.836Z,56.00
2018-05-13T07:12:44.075Z,54.74
2018-05-13T07:13:44.313Z,55.49
2018-05-13T07:14:44.551Z,55.68
2018-05-13T07:15:44.789Z,56.16
2018-05-13T07:16:45.026Z,57.79
2018-05-13T07:17:45.267Z,58.14
2018-05-13T07:18:45.503Z,58.24
2018-05-13T07:19:45.739Z,59.38
2018-05-13T07:20:45.980Z,60.53
2018-05-13T07:21:46.214Z,60.24
2018-05-13T07:22:46.451Z,61.02
2018-05-13T07:23:46.690Z,60.53
2018-05-13T07:24:46.928Z,61.37
2018-05-13T07:25:47.165Z,61.95
2018-05-13T07:26:47.405Z,62.79
2018-05-13T07:27:47.641Z,63.18
2018-05-13T07:28:47.878Z,63.56
2018-05-13T07:29:48.201Z,62.98
2018-05-13T07:30:48.357Z,63.08
2018-05-13T07:31:48.594Z,63.69
2018-05-13T07:32:48.833Z,63.18
2018-05-13T07:33:49.074Z,63.02
2018-05-13T07:34:49.309Z,62.73
2018-05-13T07:35:49.546Z,62.85
2018-05-13T07:36:49.784Z,63.63
2018-05-13T07:37:50.019Z,63.50
2018-05-13T07:38:50.256Z,63.31
2018-05-13T07:39:50.495Z,63.69
2018-05-13T07:40:50.732Z,64.08
2018-05-13T07:41:50.968Z,64.66
2018-05-13T07:42:51.206Z,63.40
2018-05-13T07:43:51.443Z,62.82
2018-05-13T07:44:51.680Z,63.56
2018-05-13T07:45:51.917Z,65.11
2018-05-13T07:46:52.155Z,63.31
2018-05-13T07:47:52.391Z,64.05
2018-05-13T07:48:52.629Z,63.56
2018-05-13T07:49:52.865Z,64.34
2018-05-13T07:50:53.154Z,65.88
2018-05-13T07:51:53.340Z,65.69
2018-05-13T07:52:53.578Z,66.40
2018-05-13T07:53:53.814Z,64.27
2018-05-13T07:54:54.053Z,64.27
2018-05-13T07:55:54.289Z,65.14
2018-05-13T07:56:54.529Z,65.47
2018-05-13T07:57:54.828Z,64.66
2018-05-13T07:58:55.003Z,63.50
2018-05-13T07:59:55.237Z,64.56
2018-05-13T08:00:55.478Z,64.63
2018-05-13T08:01:55.712Z,65.53
2018-05-13T08:02:55.944Z,64.27
2018-05-13T08:03:56.183Z,64.47
2018-05-13T08:04:56.420Z,64.56
2018-05-13T08:05:56.656Z,65.05
2018-05-13T08:06:56.893Z,65.43
2018-05-13T08:07:57.127Z,64.47
2018-05-13T08:08:57.360Z,65.30
2018-05-13T08:09:57.597Z,65.53
2018-05-13T08:10:57.834Z,66.78
2018-05-13T08:11:58.069Z,66.30
2018-05-13T08:12:58.310Z,64.66
2018-05-13T08:13:58.583Z,64.27
2018-05-13T08:14:58.778Z,65.05
2018-05-13T08:15:59.014Z,65.72
2018-05-13T08:16:59.256Z,65.53
2018-05-13T08:17:59.491Z,65.40
2018-05-13T08:18:59.726Z,65.14
2018-05-13T08:19:59.962Z,66.20
2018-05-13T08:21:00.197Z,66.27
2018-05-13T08:22:00.437Z,66.46
2018-05-13T08:23:00.671Z,66.98
2018-05-13T08:24:00.908Z,66.78
2018-05-13T08:25:01.143Z,66.40
2018-05-13T08:26:01.382Z,66.46
2018-05-13T08:27:01.620Z,67.33
2018-05-13T08:28:01.855Z,67.14
2018-05-13T08:29:02.091Z,66.78
2018-05-13T08:30:02.329Z,66.17
2018-05-13T08:31:02.564Z,66.36
2018-05-13T08:32:02.799Z,66.46
2018-05-13T08:33:03.033Z,66.75
2018-05-13T08:34:03.268Z,67.33
2018-05-13T08:35:03.505Z,67.04
2018-05-13T08:36:03.744Z,66.66
2018-05-13T08:37:03.976Z,67.14
2018-05-13T08:38:04.213Z,66.85
2018-05-13T08:39:04.447Z,67.14
2018-05-13T08:40:04.683Z,67.36
2018-05-13T08:41:04.919Z,66.11
2018-05-13T08:42:05.157Z,66.30
2018-05-13T08:43:05.388Z,66.40
2018-05-13T08:44:05.624Z,65.24
2018-05-13T08:45:05.859Z,64.56
2018-05-13T08:46:06.096Z,64.66
2018-05-13T08:47:06.331Z,64.79
2018-05-13T08:48:06.635Z,64.31
2018-05-13T08:49:06.803Z,64.50
2018-05-13T08:50:07.042Z,65.59
2018-05-13T08:51:07.281Z,64.04
2018-05-13T08:52:07.516Z,64.17
2018-05-13T08:53:07.754Z,65.24
2018-05-13T08:54:07.993Z,63.62
2018-05-13T08:55:08.229Z,63.53
2018-05-13T08:56:08.465Z,61.01
2018-05-13T08:57:08.701Z,60.72
2018-05-13T08:58:08.931Z,61.30
2018-05-13T08:59:09.186Z,60.82
2018-05-13T09:00:09.420Z,60.62
2018-05-13T09:01:09.657Z,61.21
2018-05-13T09:02:09.896Z,62.27
2018-05-13T09:03:10.131Z,61.49
2018-05-13T09:04:10.369Z,62.37
2018-05-13T09:05:10.604Z,61.98
2018-05-13T09:06:10.841Z,61.01
2018-05-13T09:07:11.078Z,60.82
2018-05-13T09:08:11.316Z,60.62
2018-05-13T09:09:11.550Z,61.59
2018-05-13T09:10:11.793Z,61.21
2018-05-13T09:11:12.028Z,60.62
2018-05-13T09:12:12.263Z,60.75
2018-05-13T09:13:12.497Z,60.17
2018-05-13T09:14:12.822Z,60.65
2018-05-13T09:15:12.972Z,57.84
2018-05-13T09:16:13.212Z,59.00
2018-05-13T09:17:13.445Z,60.82
2018-05-13T09:18:13.685Z,59.46
2018-05-13T09:19:13.919Z,59.66
2018-05-13T09:20:14.157Z,59.36
2018-05-13T09:21:14.391Z,60.82
2018-05-13T09:22:14.627Z,60.24
2018-05-13T09:23:14.862Z,60.52
2018-05-13T09:24:15.097Z,59.43
2018-05-13T09:25:15.335Z,59.07
2018-05-13T09:26:15.575Z,58.59
2018-05-13T09:27:15.815Z,60.62
2018-05-13T09:28:16.048Z,59.39
2018-05-13T09:29:16.285Z,58.69
2018-05-13T09:30:16.524Z,59.27
2018-05-13T09:31:16.759Z,59.17
2018-05-13T09:32:16.997Z,58.78
2018-05-13T09:33:17.233Z,58.78
2018-05-13T09:34:17.471Z,58.49
2018-05-13T09:35:17.707Z,59.07
2018-05-13T09:36:17.946Z,58.88
2018-05-13T09:37:18.184Z,59.66
2018-05-13T09:38:18.420Z,59.27
2018-05-13T09:39:18.658Z,60.24
2018-05-13T09:40:18.896Z,59.75
2018-05-13T09:41:19.132Z,60.55
2018-05-13T09:42:19.372Z,59.20
2018-05-13T09:43:19.606Z,60.46
2018-05-13T09:44:19.843Z,60.00
2018-05-13T09:45:20.082Z,57.87
2018-05-13T09:46:20.318Z,59.13
2018-05-13T09:47:20.554Z,60.49
2018-05-13T09:48:20.805Z,58.94
2018-05-13T09:49:21.028Z,58.87
2018-05-13T09:50:21.269Z,57.32
2018-05-13T09:51:21.537Z,57.42
2018-05-13T09:52:21.748Z,57.15
2018-05-13T09:53:21.980Z,56.67
2018-05-13T09:54:22.218Z,56.28
2018-05-13T09:55:22.458Z,55.99
2018-05-13T09:56:22.700Z,54.46
2018-05-13T09:57:22.935Z,54.92
2018-05-13T09:58:23.173Z,55.79
2018-05-13T09:59:23.411Z,57.15
2018-05-13T10:00:23.647Z,56.47
2018-05-13T10:01:23.886Z,54.82
2018-05-13T10:02:24.128Z,54.82
2018-05-13T10:03:24.367Z,55.31
2018-05-13T10:04:24.607Z,54.82
2018-05-13T10:05:24.839Z,54.92
2018-05-13T10:06:25.080Z,54.82
2018-05-13T10:07:25.315Z,55.89
2018-05-13T10:08:25.552Z,55.67
2018-05-13T10:09:25.810Z,55.89
2018-05-13T10:10:26.029Z,55.08
2018-05-13T10:11:26.274Z,54.70
2018-05-13T10:12:26.506Z,55.21
2018-05-13T10:13:26.740Z,54.27
2018-05-13T10:14:26.981Z,52.72
2018-05-13T10:15:27.220Z,52.52
2018-05-13T10:16:27.458Z,53.00
2018-05-13T10:17:27.692Z,52.72
2018-05-13T10:18:27.935Z,51.93
2018-05-13T10:19:28.182Z,52.62
2018-05-13T10:20:28.540Z,53.71
2018-05-13T10:21:28.681Z,52.64
2018-05-13T10:22:28.921Z,52.72
2018-05-13T10:23:29.155Z,52.88
2018-05-13T10:24:29.395Z,53.17
2018-05-13T10:25:29.634Z,52.88
2018-05-13T10:26:29.869Z,53.66
2018-05-13T10:27:30.110Z,53.75
2018-05-13T10:28:30.350Z,53.49
2018-05-13T10:29:30.589Z,54.85
2018-05-13T10:30:30.826Z,54.94
2018-05-13T10:31:31.065Z,54.20
2018-05-13T10:32:31.302Z,53.22
2018-05-13T10:33:31.609Z,52.25
2018-05-13T10:34:31.823Z,52.84
2018-05-13T10:35:32.005Z,52.64
2018-05-13T10:36:32.217Z,52.06
2018-05-13T10:37:32.461Z,50.70
2018-05-13T10:38:32.696Z,52.45
2018-05-13T10:39:32.931Z,52.37
2018-05-13T10:40:33.166Z,51.01
2018-05-13T10:41:33.417Z,52.89
2018-05-13T10:42:33.694Z,51.23
2018-05-13T10:43:33.889Z,51.99
2018-05-13T10:44:34.126Z,52.37
2018-05-13T10:45:34.366Z,49.46
2018-05-13T10:46:34.603Z,49.17
2018-05-13T10:47:34.842Z,49.17
2018-05-13T10:48:35.085Z,48.22
2018-05-13T10:49:35.325Z,49.51
2018-05-13T10:50:35.559Z,50.09
2018-05-13T10:51:35.798Z,49.61
2018-05-13T10:52:36.038Z,50.04
2018-05-13T10:53:36.284Z,50.53
2018-05-13T10:54:36.519Z,49.27
2018-05-13T10:55:36.763Z,50.04
2018-05-13T10:56:37.000Z,49.95
2018-05-13T10:57:37.237Z,50.41
2018-05-13T10:58:37.478Z,50.80
2018-05-13T10:59:37.720Z,50.99
2018-05-13T11:00:37.964Z,51.18
2018-05-13T11:01:38.199Z,52.42
2018-05-13T11:02:38.439Z,53.20
2018-05-13T11:03:38.683Z,54.00
2018-05-13T11:04:38.993Z,54.85
2018-05-13T11:05:39.157Z,55.63
2018-05-13T11:06:39.398Z,56.18
2018-05-13T11:07:39.632Z,57.83
2018-05-13T11:08:39.876Z,55.99
2018-05-13T11:09:40.109Z,56.83
2018-05-13T11:10:40.359Z,57.12
2018-05-13T11:11:40.594Z,58.48
2018-05-13T11:12:40.834Z,57.32
2018-05-13T11:13:41.073Z,57.32
2018-05-13T11:14:41.312Z,59.58
2018-05-13T11:15:41.554Z,57.54
2018-05-13T11:16:41.793Z,58.93
2018-05-13T11:17:42.036Z,57.08
2018-05-13T11:18:42.273Z,60.38
2018-05-13T11:19:42.557Z,56.11
2018-05-13T11:20:42.796Z,56.70
2018-05-13T11:21:42.993Z,55.43
2018-05-13T11:22:43.291Z,57.28
2018-05-13T11:23:43.475Z,55.24
2018-05-13T11:24:43.713Z,56.01
2018-05-13T11:25:43.954Z,54.85
2018-05-13T11:26:44.242Z,54.36
2018-05-13T11:27:44.425Z,54.92
2018-05-13T11:28:44.667Z,56.15
2018-05-13T11:29:44.909Z,55.77
2018-05-13T11:30:45.147Z,55.67
2018-05-13T11:31:45.386Z,56.83
2018-05-13T11:32:45.625Z,56.41
2018-05-13T11:33:45.875Z,55.93
2018-05-13T11:34:46.101Z,56.51
2018-05-13T11:35:46.338Z,56.32
2018-05-13T11:36:46.582Z,55.93
2018-05-13T11:37:46.813Z,55.54
2018-05-13T11:38:47.054Z,55.08
2018-05-13T11:39:47.291Z,55.77
2018-05-13T11:40:47.528Z,54.99
2018-05-13T11:41:47.768Z,55.57
2018-05-13T11:42:48.007Z,55.11
2018-05-13T11:43:48.245Z,54.44
2018-05-13T11:44:48.473Z,54.07
2018-05-13T11:45:48.712Z,53.59
2018-05-13T11:46:49.017Z,53.13
2018-05-13T11:47:49.183Z,53.32
2018-05-13T11:48:49.424Z,54.80
2018-05-13T11:49:49.657Z,53.54
2018-05-13T11:50:49.947Z,53.45
2018-05-13T11:51:50.152Z,54.58
2018-05-13T11:52:50.392Z,53.91
2018-05-13T11:53:50.633Z,54.49
2018-05-13T11:54:50.871Z,54.94
2018-05-13T11:55:51.112Z,55.04
2018-05-13T11:56:51.349Z,56.18
2018-05-13T11:57:51.593Z,56.93
2018-05-13T11:58:51.831Z,58.29
2018-05-13T11:59:52.067Z,58.77
2018-05-13T12:00:52.334Z,59.64
2018-05-13T12:01:52.576Z,59.55
2018-05-13T12:02:52.817Z,59.36
2018-05-13T12:03:53.054Z,58.19
2018-05-13T12:04:53.290Z,58.80
2018-05-13T12:05:53.534Z,58.03
2018-05-13T12:06:53.766Z,58.03
2018-05-13T12:07:54.005Z,58.34
2018-05-13T12:08:54.246Z,56.40
2018-05-13T12:09:54.483Z,57.08
2018-05-13T12:10:54.725Z,57.83
2018-05-13T12:11:54.963Z,59.09
2018-05-13T12:12:55.204Z,58.41
2018-05-13T12:13:55.441Z,59.09
2018-05-13T12:14:55.678Z,58.03
2018-05-13T12:15:55.914Z,59.19
2018-05-13T12:16:56.153Z,60.74
2018-05-13T12:17:56.390Z,58.03
2018-05-13T12:18:56.625Z,56.96
2018-05-13T12:19:56.879Z,57.06
2018-05-13T12:20:57.125Z,57.70
2018-05-13T12:21:57.354Z,57.70
2018-05-13T12:22:57.599Z,57.70
2018-05-13T12:23:57.836Z,58.58
2018-05-13T12:24:58.071Z,59.06
2018-05-13T12:25:58.316Z,59.16
2018-05-13T12:26:58.555Z,59.55
2018-05-13T12:27:58.797Z,60.58
2018-05-13T12:28:59.049Z,60.58
2018-05-13T12:29:59.269Z,61.39
2018-05-13T12:30:59.507Z,61.36
2018-05-13T12:31:59.749Z,61.46
2018-05-13T12:32:59.986Z,62.62
2018-05-13T12:34:00.222Z,61.94
2018-05-13T12:35:00.458Z,62.33
2018-05-13T12:36:00.699Z,62.33
2018-05-13T12:37:00.936Z,60.00
2018-05-13T12:38:01.186Z,59.13
2018-05-13T12:39:01.412Z,58.94
2018-05-13T12:40:01.651Z,59.23
2018-05-13T12:41:01.889Z,59.03
2018-05-13T12:42:02.129Z,57.29
2018-05-13T12:43:02.376Z,58.74
2018-05-13T12:44:02.613Z,58.16
2018-05-13T12:45:02.854Z,57.94
2018-05-13T12:46:03.091Z,59.03
2018-05-13T12:47:03.333Z,59.49
2018-05-13T12:48:03.570Z,59.61
2018-05-13T12:49:03.806Z,59.42
2018-05-13T12:50:04.137Z,61.14
2018-05-13T12:51:04.289Z,61.75
2018-05-13T12:52:04.524Z,62.04
2018-05-13T12:53:04.761Z,62.59
2018-05-13T12:54:04.992Z,64.07
2018-05-13T12:55:05.230Z,62.52